Time;durP1;ratioP1;P1;durP2;ratioP2;P2;SDS_P1;SDS_P2;PMS_P1;PMS_P2;Temp;Humidity;BMP_temperature;BMP_pressure;BME280_temperature;BME280_humidity;BME280_pressure;Samples;Min_cycle;Max_cycle;Signal;HPM_P1;HPM_P2
2023/05/16 00:02:19;;;;;;;35.78;25.02;;;14.30;99.90;;;;;;4992764;28;20069;-55
2023/05/16 00:04:45;;;;;;;33.28;23.70;;;14.30;99.90;;;;;;4993062;28;20034;-57
2023/05/16 00:07:10;;;;;;;32.28;24.83;;;14.30;99.90;;;;;;4992975;28;20035;-57
2023/05/16 00:09:36;;;;;;;36.00;25.08;;;14.20;99.90;;;;;;4992588;28;20467;-58
2023/05/16 00:12:01;;;;;;;34.78;24.45;;;14.20;99.90;;;;;;4992582;28;20026;-58
2023/05/16 00:14:27;;;;;;;37.53;24.83;;;14.20;99.90;;;;;;4992691;28;20089;-56
2023/05/16 00:16:53;;;;;;;30.20;21.42;;;14.20;99.90;;;;;;4992900;28;20022;-54
2023/05/16 00:19:19;;;;;;;29.60;20.38;;;14.20;99.90;;;;;;4992424;28;20080;-56
2023/05/16 00:21:45;;;;;;;29.52;20.90;;;14.20;99.90;;;;;;4992475;28;20026;-55
2023/05/16 00:24:10;;;;;;;30.52;21.98;;;14.10;99.90;;;;;;4992645;28;20034;-57
2023/05/16 00:26:36;;;;;;;32.75;22.55;;;14.10;99.90;;;;;;4992544;28;20026;-59
2023/05/16 00:29:02;;;;;;;28.77;22.60;;;14.10;99.90;;;;;;4992116;28;20046;-50
2023/05/16 00:31:28;;;;;;;36.70;26.95;;;14.00;99.90;;;;;;4990960;28;20113;-59
2023/05/16 00:33:54;;;;;;;40.15;25.77;;;13.90;99.90;;;;;;4992499;28;20022;-58
2023/05/16 00:36:20;;;;;;;39.85;27.98;;;13.90;99.90;;;;;;4992634;28;20073;-58
2023/05/16 00:38:46;;;;;;;38.70;28.45;;;13.90;99.90;;;;;;4992209;28;20026;-53
2023/05/16 00:41:12;;;;;;;34.28;26.15;;;13.80;99.90;;;;;;4990741;28;20034;-56
2023/05/16 00:43:38;;;;;;;40.35;26.17;;;13.80;99.90;;;;;;4991330;28;20031;-58
2023/05/16 00:46:04;;;;;;;39.53;28.65;;;13.70;99.90;;;;;;4992131;28;20033;-57
2023/05/16 00:48:29;;;;;;;37.05;26.98;;;13.80;99.90;;;;;;4989944;28;20022;-58
2023/05/16 00:50:55;;;;;;;35.30;26.90;;;13.70;99.90;;;;;;4990888;28;20034;-56
2023/05/16 00:53:22;;;;;;;33.85;24.40;;;13.70;99.90;;;;;;4990791;28;20019;-57
2023/05/16 00:55:47;;;;;;;32.78;25.00;;;13.70;99.90;;;;;;4992160;28;20042;-55
2023/05/16 00:58:13;;;;;;;36.70;26.90;;;13.70;99.90;;;;;;4992277;28;20034;-55
2023/05/16 01:00:39;;;;;;;35.10;26.70;;;13.70;99.90;;;;;;4992115;28;20030;-58
2023/05/16 01:03:05;;;;;;;36.47;26.15;;;13.70;99.90;;;;;;4991795;28;20034;-56
2023/05/16 01:05:32;;;;;;;34.92;26.02;;;13.70;99.90;;;;;;4992054;28;20025;-56
2023/05/16 01:07:57;;;;;;;35.15;26.38;;;13.70;99.90;;;;;;4991683;28;20437;-56
2023/05/16 01:10:25;;;;;;;35.42;24.73;;;13.70;99.90;;;;;;4992173;28;20034;-54
2023/05/16 01:13:04;;;;;;;33.28;24.50;;;13.80;99.90;;;;;;4990275;28;20023;-58
2023/05/16 01:15:38;;;;;;;32.95;24.52;;;13.80;99.90;;;;;;4990683;28;20076;-57
2023/05/16 01:18:16;;;;;;;38.38;24.15;;;13.80;99.90;;;;;;4991876;28;20548;-55
2023/05/16 01:20:55;;;;;;;36.58;24.95;;;13.90;99.90;;;;;;4991937;28;20034;-58
2023/05/16 01:23:42;;;;;;;28.83;22.98;;;13.90;99.90;;;;;;4990371;28;20449;-57
2023/05/16 01:26:22;;;;;;;33.40;24.77;;;13.90;99.90;;;;;;4991784;28;20494;-57
2023/05/16 01:28:49;;;;;;;36.13;23.88;;;13.90;99.90;;;;;;4991535;28;20072;-57
2023/05/16 01:31:15;;;;;;;30.73;23.75;;;13.90;99.90;;;;;;4991373;28;20033;-56
2023/05/16 01:33:41;;;;;;;30.17;23.70;;;13.90;99.90;;;;;;4991642;28;20058;-55
2023/05/16 01:36:13;;;;;;;32.30;23.58;;;13.90;99.90;;;;;;4991816;28;20434;-55
2023/05/16 01:38:48;;;;;;;28.92;22.67;;;13.90;99.90;;;;;;4991647;28;20503;-56
2023/05/16 01:41:20;;;;;;;26.25;21.85;;;13.90;99.90;;;;;;4991478;28;20096;-59
2023/05/16 01:43:51;;;;;;;26.50;21.10;;;13.90;99.90;;;;;;4990818;28;20132;-56
2023/05/16 01:46:28;;;;;;;30.27;22.73;;;14.00;99.90;;;;;;4991693;28;20035;-55
2023/05/16 01:49:16;;;;;;;30.33;22.35;;;14.00;99.90;;;;;;4991589;28;20050;-53
2023/05/16 01:51:44;;;;;;;30.35;23.45;;;13.90;99.90;;;;;;4991492;28;20390;-58
2023/05/16 01:54:12;;;;;;;25.08;21.00;;;14.00;99.90;;;;;;4990302;28;20045;-58
2023/05/16 01:56:39;;;;;;;29.38;23.02;;;13.90;99.90;;;;;;4991642;28;20102;-57
2023/05/16 01:59:07;;;;;;;26.38;21.75;;;13.90;99.90;;;;;;4991204;28;20034;-56
2023/05/16 02:01:32;;;;;;;28.73;21.38;;;13.90;99.90;;;;;;4991273;28;20113;-55
2023/05/16 02:03:58;;;;;;;28.95;21.80;;;13.90;99.90;;;;;;4992912;28;20106;-56
2023/05/16 02:06:24;;;;;;;31.30;21.50;;;13.80;99.90;;;;;;4995222;28;20375;-56
2023/05/16 02:08:50;;;;;;;25.45;20.58;;;13.80;99.90;;;;;;4995074;28;20544;-57
2023/05/16 02:11:16;;;;;;;25.35;19.70;;;13.80;99.90;;;;;;4995085;28;20029;-54
2023/05/16 02:13:42;;;;;;;27.48;21.42;;;13.80;99.90;;;;;;4995158;28;20449;-55
2023/05/16 02:16:10;;;;;;;24.60;19.90;;;13.80;99.90;;;;;;4995003;28;20068;-55
2023/05/16 02:18:35;;;;;;;28.27;21.63;;;13.80;99.90;;;;;;4994758;28;20405;-54
2023/05/16 02:21:01;;;;;;;32.70;20.95;;;13.70;99.90;;;;;;4993598;28;20174;-54
2023/05/16 02:23:26;;;;;;;26.02;19.63;;;13.70;99.90;;;;;;4994979;28;20494;-56
2023/05/16 02:25:52;;;;;;;22.75;18.65;;;13.70;99.90;;;;;;4995089;28;20030;-57
2023/05/16 02:28:17;;;;;;;28.02;19.38;;;13.70;99.90;;;;;;4994451;28;20030;-55
2023/05/16 02:30:43;;;;;;;28.83;20.20;;;13.70;99.90;;;;;;4994881;28;20033;-60
2023/05/16 02:33:09;;;;;;;26.75;19.33;;;13.70;99.90;;;;;;4994732;28;20506;-52
2023/05/16 02:35:35;;;;;;;23.92;18.65;;;13.60;99.90;;;;;;4993724;28;20483;-53
2023/05/16 02:38:00;;;;;;;38.97;21.58;;;13.60;99.90;;;;;;4994340;28;20034;-55
2023/05/16 02:40:26;;;;;;;26.00;19.00;;;13.50;99.90;;;;;;4994455;28;20061;-58
2023/05/16 02:42:51;;;;;;;21.48;17.95;;;13.40;99.90;;;;;;4994299;28;20030;-56
2023/05/16 02:45:17;;;;;;;24.17;19.02;;;13.40;99.90;;;;;;4993459;28;20105;-59
2023/05/16 02:47:42;;;;;;;24.55;19.08;;;13.30;99.90;;;;;;4994017;28;20418;-55
2023/05/16 02:50:08;;;;;;;27.80;19.05;;;13.20;99.90;;;;;;4994412;28;20034;-59
2023/05/16 02:52:34;;;;;;;29.17;19.83;;;13.10;99.90;;;;;;4993102;28;20022;-59
2023/05/16 02:54:59;;;;;;;23.60;18.98;;;13.10;99.90;;;;;;4993527;28;20106;-56
2023/05/16 02:57:25;;;;;;;28.73;19.05;;;13.00;99.90;;;;;;4994589;28;20065;-58
2023/05/16 02:59:50;;;;;;;29.52;20.65;;;13.00;99.90;;;;;;4994317;28;20026;-58
2023/05/16 03:02:16;;;;;;;26.60;20.38;;;12.90;99.90;;;;;;4993760;28;20041;-59
2023/05/16 03:04:42;;;;;;;30.65;19.73;;;12.90;99.90;;;;;;4994193;28;20030;-56
2023/05/16 03:07:07;;;;;;;27.35;18.75;;;12.90;99.90;;;;;;4994054;28;20113;-57
2023/05/16 03:09:33;;;;;;;31.33;20.15;;;12.90;99.90;;;;;;4993777;28;20431;-56
2023/05/16 03:11:58;;;;;;;27.23;19.92;;;12.90;99.90;;;;;;4993820;28;20030;-60
2023/05/16 03:14:24;;;;;;;25.48;18.90;;;12.90;99.90;;;;;;4993429;28;20030;-56
2023/05/16 03:16:49;;;;;;;27.17;19.80;;;12.90;99.90;;;;;;4993090;28;20039;-57
2023/05/16 03:19:15;;;;;;;33.20;20.15;;;12.90;99.90;;;;;;4993513;28;20023;-58
2023/05/16 03:21:40;;;;;;;27.70;20.30;;;12.90;99.90;;;;;;4993549;28;20080;-61
2023/05/16 03:24:06;;;;;;;28.92;20.00;;;13.00;99.90;;;;;;4993734;28;20037;-54
2023/05/16 03:26:32;;;;;;;29.52;20.45;;;13.00;99.90;;;;;;4993747;28;20073;-55
2023/05/16 03:28:58;;;;;;;29.50;20.08;;;13.00;99.90;;;;;;4992421;28;20339;-58
2023/05/16 03:31:23;;;;;;;28.38;19.35;;;13.10;99.90;;;;;;4993187;28;20530;-59
2023/05/16 03:33:49;;;;;;;27.73;19.80;;;13.10;99.90;;;;;;4993607;28;20499;-58
2023/05/16 03:36:14;;;;;;;33.97;18.63;;;13.10;99.90;;;;;;4993703;28;20269;-56
2023/05/16 03:38:40;;;;;;;32.85;20.10;;;13.10;99.90;;;;;;4993441;28;20045;-55
2023/05/16 03:41:05;;;;;;;25.83;19.17;;;13.10;99.90;;;;;;4994438;28;20121;-60
2023/05/16 03:43:31;;;;;;;32.63;19.27;;;13.10;99.90;;;;;;4994031;28;20018;-54
2023/05/16 03:45:56;;;;;;;22.55;17.88;;;13.10;99.90;;;;;;4991140;28;20096;-54
2023/05/16 03:48:22;;;;;;;24.95;18.80;;;13.10;99.90;;;;;;4992981;28;20102;-55
2023/05/16 03:50:47;;;;;;;27.70;18.02;;;13.10;99.90;;;;;;4993272;28;20106;-57
2023/05/16 03:53:13;;;;;;;30.40;18.83;;;13.10;99.90;;;;;;4993070;28;20509;-54
2023/05/16 03:55:39;;;;;;;24.27;17.95;;;13.10;99.90;;;;;;4993357;28;20103;-58
2023/05/16 03:58:04;;;;;;;23.58;18.15;;;13.10;99.90;;;;;;4992812;28;20027;-55
2023/05/16 04:00:30;;;;;;;27.17;17.65;;;13.10;99.90;;;;;;4993111;28;20509;-58
2023/05/16 04:02:55;;;;;;;26.40;17.45;;;13.10;99.90;;;;;;4992922;28;20645;-55
2023/05/16 04:05:21;;;;;;;29.58;17.58;;;13.10;99.90;;;;;;4992078;28;20030;-57
2023/05/16 04:07:46;;;;;;;29.25;17.50;;;13.10;99.90;;;;;;4992623;28;20026;-57
2023/05/16 04:10:13;;;;;;;26.48;16.58;;;13.20;99.90;;;;;;4992882;28;20034;-57
2023/05/16 04:12:38;;;;;;;26.55;16.55;;;13.10;99.90;;;;;;4992601;28;20022;-58
2023/05/16 04:15:05;;;;;;;23.70;15.40;;;13.10;99.90;;;;;;4991502;28;20030;-56
2023/05/16 04:17:31;;;;;;;24.05;15.02;;;13.10;99.90;;;;;;4992510;28;20026;-56
2023/05/16 04:19:57;;;;;;;20.20;13.77;;;13.20;99.90;;;;;;4992864;28;20672;-57
2023/05/16 04:22:22;;;;;;;19.58;13.20;;;13.20;99.90;;;;;;4992463;28;20033;-57
2023/05/16 04:24:49;;;;;;;20.80;12.32;;;13.20;99.90;;;;;;4992685;28;20577;-57
2023/05/16 04:27:14;;;;;;;17.92;11.57;;;13.20;99.90;;;;;;4992276;28;20034;-57
2023/05/16 04:29:40;;;;;;;20.08;10.80;;;13.20;99.90;;;;;;4992465;28;20033;-59
2023/05/16 04:32:06;;;;;;;16.73;10.75;;;13.20;99.90;;;;;;4991062;28;20049;-58
2023/05/16 04:34:32;;;;;;;12.55;9.32;;;13.30;99.90;;;;;;4992845;28;20025;-59
2023/05/16 04:36:58;;;;;;;11.30;8.40;;;13.30;99.90;;;;;;4991351;28;20102;-57
2023/05/16 04:39:24;;;;;;;11.30;8.00;;;13.30;99.90;;;;;;4990914;28;20044;-57
2023/05/16 04:41:50;;;;;;;8.43;6.03;;;13.30;99.90;;;;;;4992261;28;20026;-59
2023/05/16 04:44:16;;;;;;;8.45;5.70;;;13.30;99.90;;;;;;4991485;28;20088;-57
2023/05/16 04:46:41;;;;;;;7.80;5.00;;;13.30;99.90;;;;;;4992283;28;20514;-55
2023/05/16 04:49:07;;;;;;;7.65;4.38;;;13.30;99.90;;;;;;4992084;28;20084;-57
2023/05/16 04:51:32;;;;;;;4.97;3.78;;;13.30;99.90;;;;;;4990865;28;20394;-55
2023/05/16 04:53:58;;;;;;;7.32;3.92;;;13.40;99.90;;;;;;4992294;28;20030;-60
2023/05/16 04:56:25;;;;;;;4.05;3.63;;;13.40;99.90;;;;;;4992308;28;20117;-57
2023/05/16 04:58:51;;;;;;;4.90;3.55;;;13.50;99.90;;;;;;4991694;28;20044;-55
2023/05/16 05:01:16;;;;;;;6.25;2.83;;;13.50;99.90;;;;;;4991792;28;20601;-55
2023/05/16 05:03:42;;;;;;;2.70;2.50;;;13.50;99.90;;;;;;4992073;28;20080;-58
2023/05/16 05:06:07;;;;;;;2.60;2.40;;;13.50;99.90;;;;;;4991983;28;20402;-56
2023/05/16 05:08:33;;;;;;;2.72;2.28;;;13.60;99.90;;;;;;4990555;28;20022;-57
2023/05/16 05:10:58;;;;;;;3.20;2.17;;;13.60;99.90;;;;;;4991578;28;20022;-58
2023/05/16 05:13:24;;;;;;;2.47;2.28;;;13.70;99.90;;;;;;4991035;28;20030;-56
2023/05/16 05:15:51;;;;;;;2.45;2.25;;;13.70;99.90;;;;;;4991792;28;20030;-54
2023/05/16 05:18:17;;;;;;;5.03;2.03;;;13.60;99.90;;;;;;4991754;28;20389;-57
2023/05/16 05:20:42;;;;;;;2.92;2.58;;;13.70;99.90;;;;;;4991977;28;20022;-58
2023/05/16 05:23:08;;;;;;;7.03;2.03;;;13.80;99.90;;;;;;4991719;28;20153;-56
2023/05/16 05:25:35;;;;;;;2.25;1.98;;;13.80;99.90;;;;;;4991766;28;20027;-57
2023/05/16 05:28:01;;;;;;;3.65;2.60;;;13.70;99.90;;;;;;4991970;28;20034;-55
2023/05/16 05:30:27;;;;;;;2.10;2.00;;;13.80;99.90;;;;;;4999466;23;20047;-44
2023/05/16 05:32:53;;;;;;;1.80;1.70;;;13.80;99.90;;;;;;4971895;28;20023;-45
2023/05/16 05:35:19;;;;;;;3.40;1.48;;;13.90;99.90;;;;;;4972350;28;20038;-45
2023/05/16 05:37:44;;;;;;;3.25;1.48;;;13.90;99.90;;;;;;4972180;28;20376;-45
2023/05/16 05:40:10;;;;;;;1.25;1.25;;;13.90;99.90;;;;;;4975998;28;20077;-47
2023/05/16 05:42:35;;;;;;;2.83;1.85;;;14.00;99.90;;;;;;4975821;28;20046;-47
2023/05/16 05:45:01;;;;;;;1.58;1.48;;;14.00;99.90;;;;;;4973957;28;20037;-42
2023/05/16 05:47:27;;;;;;;1.58;1.48;;;13.90;99.90;;;;;;4976516;28;20035;-45
2023/05/16 05:49:52;;;;;;;1.67;1.58;;;13.80;99.90;;;;;;4975728;28;20019;-46
2023/05/16 05:52:18;;;;;;;1.80;1.52;;;13.70;99.90;;;;;;4975923;28;20110;-46
2023/05/16 05:54:43;;;;;;;1.45;1.42;;;13.60;99.90;;;;;;4975895;28;20038;-46
2023/05/16 05:57:09;;;;;;;2.88;1.33;;;13.50;99.90;;;;;;4975948;28;20033;-45
2023/05/16 05:59:34;;;;;;;2.25;1.58;;;13.50;99.90;;;;;;4974437;28;20026;-46
2023/05/16 06:02:00;;;;;;;1.58;1.48;;;13.50;99.90;;;;;;4975541;28;20061;-43
2023/05/16 06:04:25;;;;;;;4.28;2.15;;;13.40;99.90;;;;;;4975852;28;20031;-45
2023/05/16 06:06:51;;;;;;;1.70;1.60;;;13.30;99.90;;;;;;4976176;28;20031;-44
2023/05/16 06:09:16;;;;;;;1.70;1.60;;;13.30;99.90;;;;;;4975343;28;20487;-46
2023/05/16 06:11:44;;;;;;;1.65;1.55;;;13.30;99.90;;;;;;4975337;28;20063;-48
2023/05/16 06:14:10;;;;;;;2.00;1.58;;;13.20;99.90;;;;;;4975520;28;20489;-44
2023/05/16 06:16:35;;;;;;;1.10;1.08;;;13.20;99.90;;;;;;4975669;28;20034;-44
2023/05/16 06:19:01;;;;;;;1.40;1.30;;;13.30;99.90;;;;;;4974442;28;20027;-46
2023/05/16 06:21:26;;;;;;;3.15;1.35;;;13.20;99.90;;;;;;4975803;28;20545;-48
2023/05/16 06:23:52;;;;;;;6.63;1.27;;;13.10;99.90;;;;;;4975484;28;20035;-46
2023/05/16 06:26:18;;;;;;;4.55;1.20;;;13.10;99.90;;;;;;4975406;28;20101;-45
2023/05/16 06:28:43;;;;;;;0.73;0.73;;;13.00;99.90;;;;;;4973806;28;20150;-45
2023/05/16 06:31:09;;;;;;;2.58;0.90;;;12.80;99.90;;;;;;4974929;28;20410;-45
2023/05/16 06:33:34;;;;;;;1.33;0.95;;;12.80;99.90;;;;;;4974271;28;20522;-50
2023/05/16 06:36:00;;;;;;;3.45;0.95;;;12.90;99.90;;;;;;4975235;28;20023;-47
2023/05/16 06:38:25;;;;;;;0.73;0.73;;;12.80;99.90;;;;;;4974963;28;20121;-47
2023/05/16 06:40:51;;;;;;;0.70;0.70;;;12.80;99.90;;;;;;4975463;28;20074;-45
2023/05/16 06:43:16;;;;;;;1.00;1.00;;;12.80;99.90;;;;;;4973628;28;20039;-48
2023/05/16 06:45:43;;;;;;;2.42;0.60;;;12.90;99.90;;;;;;4974590;28;20035;-50
2023/05/16 06:48:10;;;;;;;0.73;0.73;;;12.80;99.90;;;;;;4975264;28;20038;-46
2023/05/16 06:50:35;;;;;;;0.90;0.80;;;12.80;99.90;;;;;;4975119;28;20110;-48
2023/05/16 06:53:01;;;;;;;0.80;0.80;;;12.70;99.90;;;;;;4974885;28;20062;-45
2023/05/16 06:55:26;;;;;;;2.58;0.55;;;12.70;99.90;;;;;;4975159;28;20019;-51
2023/05/16 06:57:52;;;;;;;0.68;0.60;;;12.70;99.90;;;;;;4974653;28;20026;-48
2023/05/16 07:00:18;;;;;;;0.70;0.70;;;12.70;99.90;;;;;;4975334;28;20113;-44
2023/05/16 07:02:43;;;;;;;0.60;0.60;;;12.80;99.90;;;;;;4975048;28;20483;-45
2023/05/16 07:05:09;;;;;;;0.55;0.55;;;12.70;99.90;;;;;;4974785;28;20042;-47
2023/05/16 07:07:35;;;;;;;0.40;0.40;;;12.70;99.90;;;;;;4974567;28;20085;-45
2023/05/16 07:10:00;;;;;;;0.68;0.68;;;12.60;99.90;;;;;;4974760;28;20031;-45
2023/05/16 07:12:26;;;;;;;0.60;0.60;;;12.60;99.90;;;;;;4974569;28;20033;-45
2023/05/16 07:14:51;;;;;;;0.52;0.52;;;12.60;99.90;;;;;;4974627;28;20058;-48
2023/05/16 07:17:17;;;;;;;1.02;0.63;;;12.60;99.90;;;;;;4974723;28;20496;-40
2023/05/16 07:19:42;;;;;;;0.63;0.60;;;12.60;99.90;;;;;;4974575;28;20035;-44
2023/05/16 07:22:08;;;;;;;2.00;0.70;;;12.60;99.90;;;;;;4974733;28;20033;-47
2023/05/16 07:24:35;;;;;;;0.60;0.60;;;12.60;99.90;;;;;;4972582;28;20108;-47
2023/05/16 07:27:00;;;;;;;0.77;0.60;;;12.70;99.90;;;;;;4974363;28;20454;-47
2023/05/16 07:29:26;;;;;;;0.60;0.60;;;12.60;99.90;;;;;;4972874;28;20055;-47
2023/05/16 07:31:51;;;;;;;0.70;0.70;;;12.50;99.90;;;;;;4974195;28;20495;-49
2023/05/16 07:34:17;;;;;;;0.70;0.70;;;12.50;99.90;;;;;;4974213;28;20069;-45
2023/05/16 07:36:42;;;;;;;2.55;0.63;;;12.50;99.90;;;;;;4974407;28;20031;-50
2023/05/16 07:39:08;;;;;;;2.30;1.00;;;12.60;99.90;;;;;;4973960;28;20399;-48
2023/05/16 07:41:33;;;;;;;0.75;0.70;;;12.60;99.90;;;;;;4973980;28;20415;-47
2023/05/16 07:43:59;;;;;;;2.88;0.63;;;12.60;99.90;;;;;;4973353;28;20467;-49
2023/05/16 07:46:24;;;;;;;0.70;0.68;;;12.60;99.90;;;;;;4974375;28;20038;-46
2023/05/16 07:48:50;;;;;;;2.25;0.55;;;12.50;99.90;;;;;;4974127;28;20031;-50
2023/05/16 07:51:16;;;;;;;0.73;0.73;;;12.50;99.90;;;;;;4974241;28;20406;-46
2023/05/16 07:53:41;;;;;;;0.60;0.60;;;12.50;99.90;;;;;;4973229;28;20511;-45
2023/05/16 07:56:07;;;;;;;3.05;1.00;;;12.50;99.90;;;;;;4971071;28;20423;-48
2023/05/16 07:58:33;;;;;;;0.47;0.47;;;12.50;99.90;;;;;;4970163;28;20030;-47
2023/05/16 08:00:58;;;;;;;1.13;0.70;;;12.50;99.90;;;;;;4972284;28;20029;-45
2023/05/16 08:03:24;;;;;;;1.30;0.68;;;12.30;99.90;;;;;;4974870;28;20031;-45
2023/05/16 08:05:50;;;;;;;0.40;0.40;;;12.30;99.90;;;;;;4973811;28;20546;-45
2023/05/16 08:08:16;;;;;;;0.40;0.40;;;12.30;99.90;;;;;;4973207;28;20030;-46
2023/05/16 08:10:41;;;;;;;0.40;0.40;;;12.30;99.90;;;;;;4975816;28;20491;-47
2023/05/16 08:13:07;;;;;;;0.50;0.50;;;12.20;99.90;;;;;;4973104;28;20030;-48
2023/05/16 08:15:32;;;;;;;0.30;0.30;;;12.20;99.90;;;;;;4973671;28;20030;-45
2023/05/16 08:17:58;;;;;;;0.40;0.40;;;12.30;99.90;;;;;;4973433;28;20077;-46
2023/05/16 08:20:24;;;;;;;0.43;0.40;;;12.20;99.90;;;;;;4971906;28;20027;-49
2023/05/16 08:22:51;;;;;;;1.13;0.40;;;12.20;99.90;;;;;;4972944;28;20487;-45
2023/05/16 08:25:16;;;;;;;0.40;0.40;;;12.10;99.90;;;;;;4973437;28;20023;-47
2023/05/16 08:27:44;;;;;;;1.20;0.60;;;12.10;99.90;;;;;;4968863;28;20027;-45
2023/05/16 08:30:10;;;;;;;4.22;0.55;;;12.10;99.90;;;;;;4954709;29;20030;-46
2023/05/16 08:32:36;;;;;;;3.50;0.40;;;12.10;99.90;;;;;;4953552;29;20399;-49
2023/05/16 08:35:01;;;;;;;0.20;0.20;;;12.20;99.90;;;;;;4954547;28;20023;-51
2023/05/16 08:37:27;;;;;;;1.10;0.32;;;12.10;99.90;;;;;;4969811;28;20060;-46
2023/05/16 08:39:53;;;;;;;0.40;0.40;;;12.10;99.90;;;;;;4970554;28;20120;-46
2023/05/16 08:42:18;;;;;;;0.40;0.40;;;12.10;99.90;;;;;;4972939;28;20406;-48
2023/05/16 08:44:44;;;;;;;0.65;0.50;;;12.10;99.90;;;;;;4970868;28;20483;-43
2023/05/16 08:47:17;;;;;;;2.28;0.30;;;12.00;99.90;;;;;;4972991;28;20434;-41
2023/05/16 08:49:45;;;;;;;0.63;0.52;;;12.00;99.90;;;;;;4972231;28;20101;-47
2023/05/16 08:52:12;;;;;;;5.47;0.50;;;11.90;99.90;;;;;;4971841;28;20034;-49
2023/05/16 08:54:39;;;;;;;0.60;0.60;;;11.90;99.90;;;;;;4971724;28;20065;-45
2023/05/16 08:57:05;;;;;;;0.45;0.40;;;11.90;99.90;;;;;;4973065;28;20030;-46
2023/05/16 08:59:31;;;;;;;1.60;0.50;;;12.00;99.90;;;;;;4964063;28;20054;-47
2023/05/16 09:01:57;;;;;;;0.80;0.43;;;11.90;99.90;;;;;;4957100;28;20317;-45
2023/05/16 09:04:24;;;;;;;0.60;0.60;;;11.80;99.90;;;;;;4971232;28;20026;-44
2023/05/16 09:06:51;;;;;;;3.83;0.50;;;11.90;99.90;;;;;;4972557;28;20023;-42
2023/05/16 09:09:16;;;;;;;2.15;0.40;;;11.90;99.90;;;;;;4955744;28;20237;-44
2023/05/16 09:11:42;;;;;;;2.38;0.30;;;11.90;99.90;;;;;;4962474;28;20439;-43
2023/05/16 09:14:08;;;;;;;1.55;0.50;;;11.90;99.90;;;;;;4972137;28;20059;-45
2023/05/16 09:16:33;;;;;;;2.58;0.50;;;11.90;99.90;;;;;;4972674;28;20089;-42
2023/05/16 09:19:00;;;;;;;3.03;0.40;;;11.90;99.90;;;;;;4969026;28;20092;-45
2023/05/16 09:21:33;;;;;;;3.92;0.60;;;11.90;99.90;;;;;;4969600;28;20384;-48
2023/05/16 09:24:05;;;;;;;0.68;0.52;;;11.80;99.90;;;;;;4972598;28;20030;-44
2023/05/16 09:26:33;;;;;;;3.45;0.70;;;11.80;99.90;;;;;;4967425;28;20031;-48
2023/05/16 09:28:59;;;;;;;0.38;0.30;;;11.90;99.90;;;;;;4952903;29;20030;-44
2023/05/16 09:31:27;;;;;;;0.55;0.50;;;11.90;99.90;;;;;;4952773;29;20035;-49
2023/05/16 09:33:55;;;;;;;1.27;0.65;;;12.00;99.90;;;;;;4953673;28;20024;-49
2023/05/16 09:36:21;;;;;;;0.50;0.50;;;12.20;99.90;;;;;;4959400;28;20035;-45
2023/05/16 09:38:47;;;;;;;0.47;0.47;;;12.30;99.90;;;;;;4972766;28;20038;-47
2023/05/16 09:41:12;;;;;;;0.75;0.55;;;12.30;99.90;;;;;;4971275;28;20087;-46
2023/05/16 09:43:40;;;;;;;1.38;0.90;;;12.10;99.90;;;;;;4955710;28;20443;-45
2023/05/16 09:46:06;;;;;;;0.82;0.60;;;12.20;99.90;;;;;;4972063;28;20393;-44
2023/05/16 09:48:32;;;;;;;2.03;0.82;;;12.30;99.90;;;;;;4972287;28;20114;-45
2023/05/16 09:51:02;;;;;;;1.30;1.17;;;12.50;99.90;;;;;;4970987;28;20027;-44
2023/05/16 09:53:31;;;;;;;0.65;0.65;;;12.50;99.90;;;;;;4968966;28;20454;-44
2023/05/16 09:56:06;;;;;;;1.95;0.68;;;12.60;99.90;;;;;;4972453;28;20054;-44
2023/05/16 09:58:33;;;;;;;1.33;1.23;;;12.60;99.90;;;;;;4972638;28;20025;-43
2023/05/16 10:00:59;;;;;;;1.33;0.90;;;12.80;99.90;;;;;;4971737;28;20042;-39
2023/05/16 10:03:26;;;;;;;2.90;0.80;;;12.90;99.90;;;;;;4972453;28;20368;-44
2023/05/16 10:05:53;;;;;;;10.23;1.70;;;12.90;99.90;;;;;;4971996;28;20117;-47
2023/05/16 10:08:24;;;;;;;0.63;0.63;;;13.00;99.90;;;;;;4971588;28;20380;-46
2023/05/16 10:10:51;;;;;;;0.70;0.50;;;13.10;99.90;;;;;;4972013;28;20026;-50
2023/05/16 10:13:28;;;;;;;0.95;0.73;;;13.10;99.90;;;;;;4970656;28;20031;-45
2023/05/16 10:15:59;;;;;;;0.88;0.70;;;13.10;99.90;;;;;;4971766;28;20034;-46
2023/05/16 10:18:29;;;;;;;0.57;0.57;;;13.10;99.90;;;;;;4971825;28;20364;-44
2023/05/16 10:20:57;;;;;;;1.25;0.90;;;13.00;99.90;;;;;;4972512;28;20027;-45
2023/05/16 10:23:25;;;;;;;2.00;0.82;;;12.80;99.90;;;;;;4968792;28;20035;-45
2023/05/16 10:25:51;;;;;;;2.65;0.95;;;12.80;99.90;;;;;;4974484;28;20106;-49
2023/05/16 10:28:16;;;;;;;2.45;1.33;;;12.80;99.90;;;;;;4994312;28;20033;-46
2023/05/16 10:30:46;;;;;;;1.65;0.88;;;12.80;99.90;;;;;;4980176;28;20035;-43
2023/05/16 10:33:16;;;;;;;2.13;1.00;;;12.70;99.90;;;;;;4974694;28;20431;-45
2023/05/16 10:35:43;;;;;;;4.93;1.33;;;12.70;99.90;;;;;;4975771;28;20015;-48
2023/05/16 10:38:11;;;;;;;3.35;1.17;;;13.00;99.90;;;;;;4974941;28;20027;-47
2023/05/16 10:40:38;;;;;;;4.95;1.27;;;13.20;99.90;;;;;;4974387;28;20027;-45
2023/05/16 10:43:05;;;;;;;5.20;1.13;;;13.10;99.90;;;;;;4975101;28;20073;-45
2023/05/16 10:45:31;;;;;;;4.18;1.30;;;12.80;99.90;;;;;;4975644;28;20118;-48
2023/05/16 10:47:58;;;;;;;7.65;1.55;;;12.70;99.90;;;;;;4974748;28;20121;-44
2023/05/16 10:50:43;;;;;;;3.47;1.98;;;12.80;99.90;;;;;;4974676;28;20077;-45
2023/05/16 10:53:14;;;;;;;2.95;1.40;;;13.00;99.90;;;;;;4975087;28;20480;-45
2023/05/16 10:55:55;;;;;;;2.17;1.25;;;12.90;99.90;;;;;;4973601;28;20034;-43
2023/05/16 10:58:37;;;;;;;7.75;1.85;;;12.80;99.90;;;;;;4974862;28;20070;-43
2023/05/16 11:01:19;;;;;;;6.22;2.53;;;13.00;99.90;;;;;;4974550;28;20062;-44
2023/05/16 11:04:03;;;;;;;5.20;1.85;;;13.10;99.90;;;;;;4974505;28;20486;-43
2023/05/16 11:06:34;;;;;;;10.32;1.63;;;13.20;99.90;;;;;;4975277;28;20034;-45
2023/05/16 11:09:26;;;;;;;10.05;1.55;;;13.10;99.90;;;;;;4974005;28;20179;-44
2023/05/16 11:11:51;;;;;;;7.00;1.70;;;13.20;99.90;;;;;;4973460;28;20039;-44
2023/05/16 11:14:33;;;;;;;3.78;1.50;;;13.30;99.90;;;;;;4973010;28;20606;-45
2023/05/16 11:17:05;;;;;;;8.13;1.60;;;13.20;99.90;;;;;;4973953;28;20103;-46
2023/05/16 11:19:40;;;;;;;16.83;2.15;;;13.00;99.90;;;;;;4970721;28;20054;-44
2023/05/16 11:22:07;;;;;;;;;;;13.10;99.90;;;;;;4975340;28;20552;-44
2023/05/16 11:24:34;;;;;;;7.38;2.03;;;13.30;99.90;;;;;;4974237;28;19910;-48
2023/05/16 11:27:00;;;;;;;6.25;1.83;;;13.40;99.90;;;;;;4964782;28;20053;-48
2023/05/16 11:29:27;;;;;;;6.05;2.50;;;13.20;99.90;;;;;;4972605;28;20394;-43
2023/05/16 11:31:53;;;;;;;6.00;1.70;;;13.40;99.90;;;;;;4974293;28;20034;-41
2023/05/16 11:34:18;;;;;;;9.52;1.92;;;13.30;99.90;;;;;;4974640;28;20023;-41
2023/05/16 11:36:44;;;;;;;9.35;1.75;;;13.50;99.90;;;;;;4973836;28;20113;-43
2023/05/16 11:39:11;;;;;;;6.03;1.33;;;13.40;99.80;;;;;;4974476;28;20491;-46
2023/05/16 11:41:37;;;;;;;3.03;1.45;;;13.30;99.70;;;;;;4974317;28;20110;-48
2023/05/16 11:44:04;;;;;;;10.35;2.05;;;13.30;99.90;;;;;;4974056;28;20514;-44
2023/05/16 11:46:30;;;;;;;6.85;1.77;;;13.40;99.90;;;;;;4974566;28;20038;-48
2023/05/16 11:48:56;;;;;;;5.28;1.30;;;13.40;99.90;;;;;;4972682;28;20440;-46
2023/05/16 11:51:22;;;;;;;8.73;2.22;;;13.30;99.90;;;;;;4973851;28;20025;-44
2023/05/16 11:53:48;;;;;;;5.35;2.22;;;13.20;99.90;;;;;;4974123;28;20326;-40
2023/05/16 11:56:14;;;;;;;4.35;2.00;;;13.20;99.90;;;;;;4974342;28;20038;-43
2023/05/16 11:58:41;;;;;;;3.83;1.40;;;13.20;99.90;;;;;;4973584;28;20023;-44
2023/05/16 12:01:07;;;;;;;9.30;1.98;;;13.30;99.90;;;;;;4973737;28;20029;-46
2023/05/16 12:03:34;;;;;;;6.28;1.33;;;13.50;99.90;;;;;;4972861;28;20023;-45
2023/05/16 12:05:59;;;;;;;4.28;1.48;;;13.40;99.90;;;;;;4973768;28;20105;-46
2023/05/16 12:08:25;;;;;;;8.07;2.65;;;13.30;99.90;;;;;;4973224;28;20135;-45
2023/05/16 12:10:52;;;;;;;7.63;1.63;;;13.50;99.90;;;;;;4973536;28;20027;-46
2023/05/16 12:13:19;;;;;;;3.35;1.50;;;13.40;99.90;;;;;;4973291;28;20030;-49
2023/05/16 12:15:45;;;;;;;7.53;1.92;;;13.60;99.90;;;;;;4973545;28;20026;-47
2023/05/16 12:18:12;;;;;;;7.63;1.95;;;13.70;99.90;;;;;;4973068;28;20395;-43
2023/05/16 12:20:38;;;;;;;6.95;1.40;;;13.80;99.90;;;;;;4969823;28;20037;-45
2023/05/16 12:23:03;;;;;;;7.28;1.83;;;13.90;99.90;;;;;;4973038;28;20027;-49
2023/05/16 12:25:30;;;;;;;5.18;2.03;;;14.20;99.90;;;;;;4972976;28;20031;-47
2023/05/16 12:28:01;;;;;;;6.07;1.88;;;14.30;99.90;;;;;;4972181;28;20027;-48
2023/05/16 12:30:31;;;;;;;4.80;1.55;;;14.60;99.80;;;;;;4972029;28;20058;-49
2023/05/16 12:32:58;;;;;;;13.32;1.45;;;14.80;99.50;;;;;;4973381;28;20027;-47
2023/05/16 12:35:28;;;;;;;6.68;1.70;;;14.80;99.50;;;;;;4972732;28;20027;-47
2023/05/16 12:37:55;;;;;;;10.25;2.58;;;14.90;99.50;;;;;;4972146;28;20022;-45
2023/05/16 12:40:20;;;;;;;5.60;1.50;;;15.00;99.00;;;;;;4973502;28;20430;-46